sensor_id;sensor_type;location;lat;lon;timestamp;P1;durP1;ratioP1;P2;durP2;ratioP2
76953;SDS011;65893;51.698;-0.292;2023-11-22T00:01:29;5.03;;;1.67;;
76953;SDS011;65893;51.698;-0.292;2023-11-22T00:03:55;6.32;;;1.77;;
76953;SDS011;65893;51.698;-0.292;2023-11-22T00:06:21;6.05;;;1.60;;
76953;SDS011;65893;51.698;-0.292;2023-11-22T00:08:48;6.90;;;1.42;;
76953;SDS011;65893;51.698;-0.292;2023-11-22T00:11:14;3.47;;;1.13;;
76953;SDS011;65893;51.698;-0.292;2023-11-22T00:13:40;4.13;;;1.20;;
76953;SDS011;65893;51.698;-0.292;2023-11-22T00:16:07;7.32;;;1.25;;
76953;SDS011;65893;51.698;-0.292;2023-11-22T00:18:37;6.25;;;1.33;;
76953;SDS011;65893;51.698;-0.292;2023-11-22T00:21:04;6.18;;;1.65;;
76953;SDS011;65893;51.698;-0.292;2023-11-22T00:23:30;4.57;;;1.10;;
76953;SDS011;65893;51.698;-0.292;2023-11-22T00:25:58;4.80;;;1.45;;
76953;SDS011;65893;51.698;-0.292;2023-11-22T00:28:25;9.23;;;2.35;;
76953;SDS011;65893;51.698;-0.292;2023-11-22T00:30:51;5.38;;;1.73;;
76953;SDS011;65893;51.698;-0.292;2023-11-22T00:33:18;6.50;;;1.40;;
76953;SDS011;65893;51.698;-0.292;2023-11-22T00:35:45;8.60;;;1.73;;
76953;SDS011;65893;51.698;-0.292;2023-11-22T00:38:11;6.07;;;1.63;;
76953;SDS011;65893;51.698;-0.292;2023-11-22T00:40:37;7.47;;;2.03;;
76953;SDS011;65893;51.698;-0.292;2023-11-22T00:43:03;4.07;;;1.50;;
76953;SDS011;65893;51.698;-0.292;2023-11-22T00:45:30;6.00;;;1.40;;
76953;SDS011;65893;51.698;-0.292;2023-11-22T00:47:56;3.42;;;1.40;;
76953;SDS011;65893;51.698;-0.292;2023-11-22T00:50:22;3.53;;;1.35;;
76953;SDS011;65893;51.698;-0.292;2023-11-22T00:52:50;8.00;;;1.75;;
76953;SDS011;65893;51.698;-0.292;2023-11-22T00:55:17;6.75;;;2.30;;
76953;SDS011;65893;51.698;-0.292;2023-11-22T00:57:44;6.55;;;1.90;;
76953;SDS011;65893;51.698;-0.292;2023-11-22T01:00:14;6.90;;;1.63;;
76953;SDS011;65893;51.698;-0.292;2023-11-22T01:02:40;9.55;;;1.58;;
76953;SDS011;65893;51.698;-0.292;2023-11-22T01:05:07;9.70;;;2.03;;
76953;SDS011;65893;51.698;-0.292;2023-11-22T01:07:36;6.63;;;1.88;;
76953;SDS011;65893;51.698;-0.292;2023-11-22T01:12:32;7.40;;;1.80;;
76953;SDS011;65893;51.698;-0.292;2023-11-22T01:15:00;11.40;;;2.38;;
76953;SDS011;65893;51.698;-0.292;2023-11-22T01:17:26;8.60;;;1.50;;
76953;SDS011;65893;51.698;-0.292;2023-11-22T01:19:53;6.60;;;2.15;;
76953;SDS011;65893;51.698;-0.292;2023-11-22T01:22:20;7.32;;;1.75;;
76953;SDS011;65893;51.698;-0.292;2023-11-22T01:24:47;3.83;;;1.42;;
76953;SDS011;65893;51.698;-0.292;2023-11-22T01:27:13;4.35;;;1.67;;
76953;SDS011;65893;51.698;-0.292;2023-11-22T01:29:39;5.35;;;1.88;;
76953;SDS011;65893;51.698;-0.292;2023-11-22T01:32:07;6.63;;;1.70;;
76953;SDS011;65893;51.698;-0.292;2023-11-22T01:34:35;6.00;;;1.50;;
76953;SDS011;65893;51.698;-0.292;2023-11-22T01:37:03;13.82;;;1.85;;
76953;SDS011;65893;51.698;-0.292;2023-11-22T01:39:29;5.60;;;1.92;;
76953;SDS011;65893;51.698;-0.292;2023-11-22T01:41:58;11.10;;;2.10;;
76953;SDS011;65893;51.698;-0.292;2023-11-22T01:44:25;17.98;;;1.85;;
76953;SDS011;65893;51.698;-0.292;2023-11-22T01:46:53;3.70;;;1.67;;
76953;SDS011;65893;51.698;-0.292;2023-11-22T01:49:20;5.78;;;1.98;;
76953;SDS011;65893;51.698;-0.292;2023-11-22T01:51:47;9.45;;;2.10;;
76953;SDS011;65893;51.698;-0.292;2023-11-22T01:54:15;4.85;;;1.63;;
76953;SDS011;65893;51.698;-0.292;2023-11-22T01:56:45;9.20;;;1.83;;
76953;SDS011;65893;51.698;-0.292;2023-11-22T01:59:11;14.95;;;1.83;;
76953;SDS011;65893;51.698;-0.292;2023-11-22T02:01:42;8.07;;;2.40;;
76953;SDS011;65893;51.698;-0.292;2023-11-22T02:04:11;5.63;;;1.20;;
76953;SDS011;65893;51.698;-0.292;2023-11-22T02:06:46;8.32;;;2.00;;
76953;SDS011;65893;51.698;-0.292;2023-11-22T02:09:12;8.98;;;2.13;;
76953;SDS011;65893;51.698;-0.292;2023-11-22T02:11:44;10.00;;;2.03;;
76953;SDS011;65893;51.698;-0.292;2023-11-22T02:14:14;5.18;;;1.73;;
76953;SDS011;65893;51.698;-0.292;2023-11-22T02:16:40;8.75;;;1.73;;
76953;SDS011;65893;51.698;-0.292;2023-11-22T02:19:12;4.57;;;1.65;;
76953;SDS011;65893;51.698;-0.292;2023-11-22T02:21:39;5.55;;;2.05;;
76953;SDS011;65893;51.698;-0.292;2023-11-22T02:24:05;11.88;;;1.95;;
76953;SDS011;65893;51.698;-0.292;2023-11-22T02:26:32;3.28;;;1.23;;
76953;SDS011;65893;51.698;-0.292;2023-11-22T02:28:59;7.93;;;1.70;;
76953;SDS011;65893;51.698;-0.292;2023-11-22T02:31:30;7.28;;;2.20;;
76953;SDS011;65893;51.698;-0.292;2023-11-22T02:33:57;8.75;;;1.98;;
76953;SDS011;65893;51.698;-0.292;2023-11-22T02:36:24;14.25;;;2.17;;
76953;SDS011;65893;51.698;-0.292;2023-11-22T02:38:52;6.18;;;2.30;;
76953;SDS011;65893;51.698;-0.292;2023-11-22T02:41:20;6.60;;;1.90;;
76953;SDS011;65893;51.698;-0.292;2023-11-22T02:43:48;8.90;;;1.88;;
76953;SDS011;65893;51.698;-0.292;2023-11-22T02:46:14;8.10;;;1.98;;
76953;SDS011;65893;51.698;-0.292;2023-11-22T02:48:40;10.00;;;1.90;;
76953;SDS011;65893;51.698;-0.292;2023-11-22T02:51:06;10.80;;;2.60;;
76953;SDS011;65893;51.698;-0.292;2023-11-22T02:53:32;7.95;;;1.75;;
76953;SDS011;65893;51.698;-0.292;2023-11-22T02:56:00;11.30;;;2.33;;
76953;SDS011;65893;51.698;-0.292;2023-11-22T02:58:27;5.00;;;1.85;;
76953;SDS011;65893;51.698;-0.292;2023-11-22T03:00:53;9.98;;;1.90;;
76953;SDS011;65893;51.698;-0.292;2023-11-22T03:03:22;6.78;;;1.30;;
76953;SDS011;65893;51.698;-0.292;2023-11-22T03:05:49;8.45;;;2.15;;
76953;SDS011;65893;51.698;-0.292;2023-11-22T03:08:19;9.80;;;1.85;;
76953;SDS011;65893;51.698;-0.292;2023-11-22T03:10:46;5.13;;;1.83;;
76953;SDS011;65893;51.698;-0.292;2023-11-22T03:13:12;8.95;;;1.90;;
76953;SDS011;65893;51.698;-0.292;2023-11-22T03:15:39;7.20;;;1.92;;
76953;SDS011;65893;51.698;-0.292;2023-11-22T03:18:07;9.60;;;1.92;;
76953;SDS011;65893;51.698;-0.292;2023-11-22T03:20:33;16.30;;;3.10;;
76953;SDS011;65893;51.698;-0.292;2023-11-22T03:23:01;6.82;;;2.55;;
76953;SDS011;65893;51.698;-0.292;2023-11-22T03:25:27;6.15;;;1.73;;
76953;SDS011;65893;51.698;-0.292;2023-11-22T03:27:56;7.40;;;1.75;;
76953;SDS011;65893;51.698;-0.292;2023-11-22T03:30:22;8.27;;;2.15;;
76953;SDS011;65893;51.698;-0.292;2023-11-22T03:32:50;12.35;;;2.10;;
76953;SDS011;65893;51.698;-0.292;2023-11-22T03:35:16;7.68;;;1.80;;
76953;SDS011;65893;51.698;-0.292;2023-11-22T03:37:43;7.20;;;1.50;;
76953;SDS011;65893;51.698;-0.292;2023-11-22T03:40:11;10.43;;;2.50;;
76953;SDS011;65893;51.698;-0.292;2023-11-22T03:42:38;5.32;;;1.80;;
76953;SDS011;65893;51.698;-0.292;2023-11-22T03:45:05;7.45;;;1.55;;
76953;SDS011;65893;51.698;-0.292;2023-11-22T03:47:32;4.07;;;1.60;;
76953;SDS011;65893;51.698;-0.292;2023-11-22T03:49:58;6.13;;;2.05;;
76953;SDS011;65893;51.698;-0.292;2023-11-22T03:52:27;7.97;;;2.33;;
76953;SDS011;65893;51.698;-0.292;2023-11-22T03:54:55;6.68;;;2.00;;
76953;SDS011;65893;51.698;-0.292;2023-11-22T03:57:23;8.20;;;1.70;;
76953;SDS011;65893;51.698;-0.292;2023-11-22T03:59:50;14.13;;;2.20;;
76953;SDS011;65893;51.698;-0.292;2023-11-22T04:02:18;6.88;;;2.10;;
76953;SDS011;65893;51.698;-0.292;2023-11-22T04:04:45;5.22;;;1.83;;
76953;SDS011;65893;51.698;-0.292;2023-11-22T04:07:32;11.35;;;2.20;;
76953;SDS011;65893;51.698;-0.292;2023-11-22T04:09:58;8.18;;;1.85;;
76953;SDS011;65893;51.698;-0.292;2023-11-22T04:12:25;6.68;;;1.83;;
76953;SDS011;65893;51.698;-0.292;2023-11-22T04:14:51;9.45;;;2.95;;
76953;SDS011;65893;51.698;-0.292;2023-11-22T04:17:17;9.80;;;2.25;;
76953;SDS011;65893;51.698;-0.292;2023-11-22T04:19:45;8.68;;;1.95;;
76953;SDS011;65893;51.698;-0.292;2023-11-22T04:22:14;6.57;;;2.22;;
76953;SDS011;65893;51.698;-0.292;2023-11-22T04:24:40;5.72;;;1.98;;
76953;SDS011;65893;51.698;-0.292;2023-11-22T04:27:07;6.20;;;2.80;;
76953;SDS011;65893;51.698;-0.292;2023-11-22T04:29:33;9.48;;;2.63;;
76953;SDS011;65893;51.698;-0.292;2023-11-22T04:32:00;13.07;;;3.10;;
76953;SDS011;65893;51.698;-0.292;2023-11-22T04:34:30;8.82;;;2.33;;
76953;SDS011;65893;51.698;-0.292;2023-11-22T04:36:59;9.18;;;2.53;;
76953;SDS011;65893;51.698;-0.292;2023-11-22T04:39:26;15.27;;;3.03;;
76953;SDS011;65893;51.698;-0.292;2023-11-22T04:41:52;7.57;;;2.38;;
76953;SDS011;65893;51.698;-0.292;2023-11-22T04:44:19;8.20;;;3.05;;
76953;SDS011;65893;51.698;-0.292;2023-11-22T04:46:45;8.65;;;3.05;;
76953;SDS011;65893;51.698;-0.292;2023-11-22T04:49:11;11.27;;;3.22;;
76953;SDS011;65893;51.698;-0.292;2023-11-22T04:51:38;9.05;;;3.22;;
76953;SDS011;65893;51.698;-0.292;2023-11-22T04:54:04;12.60;;;3.17;;
76953;SDS011;65893;51.698;-0.292;2023-11-22T04:56:30;11.02;;;3.53;;
76953;SDS011;65893;51.698;-0.292;2023-11-22T04:58:56;15.75;;;3.15;;
76953;SDS011;65893;51.698;-0.292;2023-11-22T05:01:24;11.45;;;3.33;;
76953;SDS011;65893;51.698;-0.292;2023-11-22T05:03:56;11.18;;;3.40;;
76953;SDS011;65893;51.698;-0.292;2023-11-22T05:06:23;7.57;;;2.83;;
76953;SDS011;65893;51.698;-0.292;2023-11-22T05:08:52;10.55;;;2.80;;
76953;SDS011;65893;51.698;-0.292;2023-11-22T05:11:19;12.93;;;3.97;;
76953;SDS011;65893;51.698;-0.292;2023-11-22T05:13:46;17.83;;;3.50;;
76953;SDS011;65893;51.698;-0.292;2023-11-22T05:18:48;6.70;;;2.58;;
76953;SDS011;65893;51.698;-0.292;2023-11-22T05:21:15;9.10;;;3.28;;
76953;SDS011;65893;51.698;-0.292;2023-11-22T05:23:42;8.80;;;3.20;;
76953;SDS011;65893;51.698;-0.292;2023-11-22T05:26:10;9.43;;;2.70;;
76953;SDS011;65893;51.698;-0.292;2023-11-22T05:28:42;10.25;;;3.25;;
76953;SDS011;65893;51.698;-0.292;2023-11-22T05:33:40;8.82;;;3.05;;
76953;SDS011;65893;51.698;-0.292;2023-11-22T05:36:06;11.30;;;3.35;;
76953;SDS011;65893;51.698;-0.292;2023-11-22T05:38:34;14.82;;;3.35;;
76953;SDS011;65893;51.698;-0.292;2023-11-22T05:41:01;15.55;;;3.22;;
76953;SDS011;65893;51.698;-0.292;2023-11-22T05:43:27;10.32;;;3.25;;
76953;SDS011;65893;51.698;-0.292;2023-11-22T05:45:54;15.82;;;4.13;;
76953;SDS011;65893;51.698;-0.292;2023-11-22T05:48:22;10.95;;;3.53;;
76953;SDS011;65893;51.698;-0.292;2023-11-22T05:50:50;10.85;;;3.35;;
76953;SDS011;65893;51.698;-0.292;2023-11-22T05:53:17;8.07;;;2.70;;
76953;SDS011;65893;51.698;-0.292;2023-11-22T05:55:47;12.05;;;3.10;;
76953;SDS011;65893;51.698;-0.292;2023-11-22T05:58:14;13.68;;;4.05;;
76953;SDS011;65893;51.698;-0.292;2023-11-22T06:00:42;12.18;;;3.60;;
76953;SDS011;65893;51.698;-0.292;2023-11-22T06:03:08;10.70;;;3.72;;
76953;SDS011;65893;51.698;-0.292;2023-11-22T06:05:34;9.68;;;3.67;;
76953;SDS011;65893;51.698;-0.292;2023-11-22T06:08:00;21.33;;;4.68;;
76953;SDS011;65893;51.698;-0.292;2023-11-22T06:10:27;13.95;;;4.18;;
76953;SDS011;65893;51.698;-0.292;2023-11-22T06:12:54;9.45;;;4.03;;
76953;SDS011;65893;51.698;-0.292;2023-11-22T06:15:22;15.30;;;3.70;;
76953;SDS011;65893;51.698;-0.292;2023-11-22T06:17:49;12.73;;;4.13;;
76953;SDS011;65893;51.698;-0.292;2023-11-22T06:20:15;13.15;;;4.25;;
76953;SDS011;65893;51.698;-0.292;2023-11-22T06:22:43;12.18;;;3.58;;
76953;SDS011;65893;51.698;-0.292;2023-11-22T06:25:09;8.63;;;3.80;;
76953;SDS011;65893;51.698;-0.292;2023-11-22T06:30:07;11.10;;;3.97;;
76953;SDS011;65893;51.698;-0.292;2023-11-22T06:32:34;10.80;;;3.33;;
76953;SDS011;65893;51.698;-0.292;2023-11-22T06:35:00;8.48;;;3.30;;
76953;SDS011;65893;51.698;-0.292;2023-11-22T06:37:28;12.82;;;3.75;;
76953;SDS011;65893;51.698;-0.292;2023-11-22T06:39:54;11.82;;;4.05;;
76953;SDS011;65893;51.698;-0.292;2023-11-22T06:42:22;15.35;;;4.70;;
76953;SDS011;65893;51.698;-0.292;2023-11-22T06:44:49;9.18;;;4.43;;
76953;SDS011;65893;51.698;-0.292;2023-11-22T06:47:18;11.38;;;4.70;;
76953;SDS011;65893;51.698;-0.292;2023-11-22T06:49:44;9.85;;;3.70;;
76953;SDS011;65893;51.698;-0.292;2023-11-22T06:52:10;15.50;;;4.90;;
76953;SDS011;65893;51.698;-0.292;2023-11-22T06:54:36;11.38;;;4.03;;
76953;SDS011;65893;51.698;-0.292;2023-11-22T06:57:02;14.57;;;4.88;;
76953;SDS011;65893;51.698;-0.292;2023-11-22T06:59:29;9.75;;;3.60;;
76953;SDS011;65893;51.698;-0.292;2023-11-22T07:01:55;16.30;;;5.03;;
76953;SDS011;65893;51.698;-0.292;2023-11-22T07:04:26;13.52;;;4.53;;
76953;SDS011;65893;51.698;-0.292;2023-11-22T07:06:52;14.45;;;4.15;;
76953;SDS011;65893;51.698;-0.292;2023-11-22T07:09:19;10.25;;;5.13;;
76953;SDS011;65893;51.698;-0.292;2023-11-22T07:11:45;9.30;;;4.20;;
76953;SDS011;65893;51.698;-0.292;2023-11-22T07:14:11;11.30;;;4.05;;
76953;SDS011;65893;51.698;-0.292;2023-11-22T07:16:37;10.18;;;3.65;;
76953;SDS011;65893;51.698;-0.292;2023-11-22T07:19:03;11.02;;;4.05;;
76953;SDS011;65893;51.698;-0.292;2023-11-22T07:21:32;11.70;;;4.88;;
76953;SDS011;65893;51.698;-0.292;2023-11-22T07:24:08;11.45;;;3.20;;
76953;SDS011;65893;51.698;-0.292;2023-11-22T07:26:38;8.40;;;3.45;;
76953;SDS011;65893;51.698;-0.292;2023-11-22T07:29:04;7.70;;;2.97;;
76953;SDS011;65893;51.698;-0.292;2023-11-22T07:31:31;13.13;;;3.95;;
76953;SDS011;65893;51.698;-0.292;2023-11-22T07:33:57;12.07;;;3.10;;
76953;SDS011;65893;51.698;-0.292;2023-11-22T07:36:23;9.60;;;3.13;;
76953;SDS011;65893;51.698;-0.292;2023-11-22T07:38:49;9.82;;;3.10;;
76953;SDS011;65893;51.698;-0.292;2023-11-22T07:41:19;7.20;;;2.53;;
76953;SDS011;65893;51.698;-0.292;2023-11-22T07:43:47;8.30;;;2.75;;
76953;SDS011;65893;51.698;-0.292;2023-11-22T07:46:14;10.77;;;3.28;;
76953;SDS011;65893;51.698;-0.292;2023-11-22T07:48:42;10.43;;;2.63;;
76953;SDS011;65893;51.698;-0.292;2023-11-22T07:51:09;15.25;;;3.30;;
76953;SDS011;65893;51.698;-0.292;2023-11-22T07:53:38;7.88;;;2.90;;
76953;SDS011;65893;51.698;-0.292;2023-11-22T07:56:07;9.00;;;2.88;;
76953;SDS011;65893;51.698;-0.292;2023-11-22T07:58:35;11.10;;;3.72;;
76953;SDS011;65893;51.698;-0.292;2023-11-22T08:01:06;8.57;;;3.00;;
76953;SDS011;65893;51.698;-0.292;2023-11-22T08:03:39;11.27;;;3.03;;
76953;SDS011;65893;51.698;-0.292;2023-11-22T08:06:11;8.20;;;3.03;;
76953;SDS011;65893;51.698;-0.292;2023-11-22T08:11:11;11.65;;;2.70;;
76953;SDS011;65893;51.698;-0.292;2023-11-22T08:13:48;11.70;;;3.78;;
76953;SDS011;65893;51.698;-0.292;2023-11-22T08:16:15;12.35;;;3.70;;
76953;SDS011;65893;51.698;-0.292;2023-11-22T08:18:42;17.55;;;4.53;;
76953;SDS011;65893;51.698;-0.292;2023-11-22T08:21:08;10.73;;;4.07;;
76953;SDS011;65893;51.698;-0.292;2023-11-22T08:23:34;12.45;;;4.22;;
76953;SDS011;65893;51.698;-0.292;2023-11-22T08:26:00;15.20;;;5.90;;
76953;SDS011;65893;51.698;-0.292;2023-11-22T08:28:27;14.82;;;4.35;;
76953;SDS011;65893;51.698;-0.292;2023-11-22T08:30:55;15.35;;;4.68;;
76953;SDS011;65893;51.698;-0.292;2023-11-22T08:33:23;12.93;;;4.95;;
76953;SDS011;65893;51.698;-0.292;2023-11-22T08:35:49;11.77;;;4.20;;
76953;SDS011;65893;51.698;-0.292;2023-11-22T08:38:17;15.02;;;4.35;;
76953;SDS011;65893;51.698;-0.292;2023-11-22T08:40:44;9.90;;;3.97;;
76953;SDS011;65893;51.698;-0.292;2023-11-22T08:43:12;12.57;;;4.55;;
76953;SDS011;65893;51.698;-0.292;2023-11-22T08:45:38;10.43;;;4.55;;
76953;SDS011;65893;51.698;-0.292;2023-11-22T08:48:04;14.23;;;4.97;;
76953;SDS011;65893;51.698;-0.292;2023-11-22T08:50:30;13.40;;;4.70;;
76953;SDS011;65893;51.698;-0.292;2023-11-22T08:52:56;14.25;;;4.95;;
76953;SDS011;65893;51.698;-0.292;2023-11-22T08:55:23;14.73;;;5.20;;
76953;SDS011;65893;51.698;-0.292;2023-11-22T08:57:50;13.38;;;5.20;;
76953;SDS011;65893;51.698;-0.292;2023-11-22T09:00:16;18.15;;;6.55;;
76953;SDS011;65893;51.698;-0.292;2023-11-22T09:02:48;16.45;;;6.07;;
76953;SDS011;65893;51.698;-0.292;2023-11-22T09:05:14;10.98;;;5.13;;
76953;SDS011;65893;51.698;-0.292;2023-11-22T09:07:42;16.00;;;5.07;;
76953;SDS011;65893;51.698;-0.292;2023-11-22T09:10:09;14.20;;;4.80;;
76953;SDS011;65893;51.698;-0.292;2023-11-22T09:12:39;11.50;;;4.95;;
76953;SDS011;65893;51.698;-0.292;2023-11-22T09:15:09;14.32;;;5.13;;
76953;SDS011;65893;51.698;-0.292;2023-11-22T09:17:39;11.10;;;5.50;;
76953;SDS011;65893;51.698;-0.292;2023-11-22T09:22:36;15.45;;;5.05;;
76953;SDS011;65893;51.698;-0.292;2023-11-22T09:25:05;16.13;;;5.90;;
76953;SDS011;65893;51.698;-0.292;2023-11-22T09:27:36;12.02;;;4.65;;
76953;SDS011;65893;51.698;-0.292;2023-11-22T09:30:03;12.48;;;5.30;;
76953;SDS011;65893;51.698;-0.292;2023-11-22T09:32:30;14.35;;;4.63;;
76953;SDS011;65893;51.698;-0.292;2023-11-22T09:34:57;21.00;;;5.00;;
76953;SDS011;65893;51.698;-0.292;2023-11-22T09:37:23;14.40;;;4.65;;
76953;SDS011;65893;51.698;-0.292;2023-11-22T09:39:50;14.57;;;4.15;;
76953;SDS011;65893;51.698;-0.292;2023-11-22T09:42:17;14.43;;;4.72;;
76953;SDS011;65893;51.698;-0.292;2023-11-22T09:44:43;11.88;;;3.60;;
76953;SDS011;65893;51.698;-0.292;2023-11-22T09:47:10;15.55;;;4.43;;
76953;SDS011;65893;51.698;-0.292;2023-11-22T09:49:36;13.52;;;4.22;;
76953;SDS011;65893;51.698;-0.292;2023-11-22T09:52:05;9.23;;;3.53;;
76953;SDS011;65893;51.698;-0.292;2023-11-22T09:54:33;11.20;;;3.53;;
76953;SDS011;65893;51.698;-0.292;2023-11-22T09:57:00;14.75;;;4.00;;
76953;SDS011;65893;51.698;-0.292;2023-11-22T09:59:28;9.52;;;3.38;;
76953;SDS011;65893;51.698;-0.292;2023-11-22T10:01:54;12.43;;;3.55;;
76953;SDS011;65893;51.698;-0.292;2023-11-22T10:04:22;11.55;;;4.70;;
76953;SDS011;65893;51.698;-0.292;2023-11-22T10:06:51;9.55;;;4.03;;
76953;SDS011;65893;51.698;-0.292;2023-11-22T10:09:18;9.98;;;3.80;;
76953;SDS011;65893;51.698;-0.292;2023-11-22T10:11:48;14.73;;;4.20;;
76953;SDS011;65893;51.698;-0.292;2023-11-22T10:14:33;13.82;;;4.32;;
76953;SDS011;65893;51.698;-0.292;2023-11-22T10:17:04;14.43;;;4.50;;
76953;SDS011;65893;51.698;-0.292;2023-11-22T10:19:30;14.52;;;4.68;;
76953;SDS011;65893;51.698;-0.292;2023-11-22T10:22:05;11.98;;;5.03;;
76953;SDS011;65893;51.698;-0.292;2023-11-22T10:24:32;9.43;;;4.30;;
76953;SDS011;65893;51.698;-0.292;2023-11-22T10:27:00;12.52;;;3.90;;
76953;SDS011;65893;51.698;-0.292;2023-11-22T10:29:26;22.15;;;3.95;;
76953;SDS011;65893;51.698;-0.292;2023-11-22T10:31:52;12.88;;;3.53;;
76953;SDS011;65893;51.698;-0.292;2023-11-22T10:34:20;9.98;;;2.95;;
76953;SDS011;65893;51.698;-0.292;2023-11-22T10:36:48;14.35;;;3.88;;
76953;SDS011;65893;51.698;-0.292;2023-11-22T10:39:18;13.02;;;4.60;;
76953;SDS011;65893;51.698;-0.292;2023-11-22T10:41:45;9.50;;;3.50;;
76953;SDS011;65893;51.698;-0.292;2023-11-22T10:44:11;10.30;;;4.88;;
76953;SDS011;65893;51.698;-0.292;2023-11-22T10:46:39;14.27;;;3.30;;
76953;SDS011;65893;51.698;-0.292;2023-11-22T10:49:05;11.00;;;4.22;;
76953;SDS011;65893;51.698;-0.292;2023-11-22T10:51:33;8.43;;;3.05;;
76953;SDS011;65893;51.698;-0.292;2023-11-22T10:54:01;13.00;;;3.83;;
76953;SDS011;65893;51.698;-0.292;2023-11-22T10:56:28;12.77;;;4.68;;
76953;SDS011;65893;51.698;-0.292;2023-11-22T10:58:58;9.63;;;3.60;;
76953;SDS011;65893;51.698;-0.292;2023-11-22T11:01:26;10.15;;;3.95;;
76953;SDS011;65893;51.698;-0.292;2023-11-22T11:03:56;8.73;;;3.78;;
76953;SDS011;65893;51.698;-0.292;2023-11-22T11:06:31;12.02;;;3.70;;
76953;SDS011;65893;51.698;-0.292;2023-11-22T11:09:02;10.57;;;3.97;;
76953;SDS011;65893;51.698;-0.292;2023-11-22T11:11:31;9.63;;;3.53;;
76953;SDS011;65893;51.698;-0.292;2023-11-22T11:13:57;7.10;;;3.20;;
76953;SDS011;65893;51.698;-0.292;2023-11-22T11:16:25;10.07;;;3.28;;
76953;SDS011;65893;51.698;-0.292;2023-11-22T11:18:51;7.63;;;2.95;;
76953;SDS011;65893;51.698;-0.292;2023-11-22T11:21:18;9.05;;;2.45;;
76953;SDS011;65893;51.698;-0.292;2023-11-22T11:23:45;10.23;;;3.13;;
76953;SDS011;65893;51.698;-0.292;2023-11-22T11:26:17;13.48;;;3.42;;
76953;SDS011;65893;51.698;-0.292;2023-11-22T11:28:49;8.15;;;3.22;;
76953;SDS011;65893;51.698;-0.292;2023-11-22T11:31:16;6.85;;;2.60;;
76953;SDS011;65893;51.698;-0.292;2023-11-22T11:36:29;9.45;;;3.28;;
76953;SDS011;65893;51.698;-0.292;2023-11-22T11:39:05;8.55;;;3.03;;
76953;SDS011;65893;51.698;-0.292;2023-11-22T11:41:34;6.93;;;2.80;;
76953;SDS011;65893;51.698;-0.292;2023-11-22T11:44:08;8.98;;;2.70;;
76953;SDS011;65893;51.698;-0.292;2023-11-22T11:46:34;14.07;;;2.72;;
76953;SDS011;65893;51.698;-0.292;2023-11-22T11:49:03;14.02;;;3.05;;
76953;SDS011;65893;51.698;-0.292;2023-11-22T11:51:32;21.25;;;4.47;;
76953;SDS011;65893;51.698;-0.292;2023-11-22T11:53:58;6.57;;;2.80;;
76953;SDS011;65893;51.698;-0.292;2023-11-22T11:56:24;7.63;;;2.47;;
76953;SDS011;65893;51.698;-0.292;2023-11-22T11:58:56;10.65;;;3.22;;
76953;SDS011;65893;51.698;-0.292;2023-11-22T12:01:27;10.95;;;3.75;;
76953;SDS011;65893;51.698;-0.292;2023-11-22T12:03:53;13.73;;;4.78;;
76953;SDS011;65893;51.698;-0.292;2023-11-22T12:06:19;14.93;;;4.18;;
76953;SDS011;65893;51.698;-0.292;2023-11-22T12:08:46;15.73;;;4.60;;
76953;SDS011;65893;51.698;-0.292;2023-11-22T12:11:17;13.80;;;4.43;;
76953;SDS011;65893;51.698;-0.292;2023-11-22T12:13:44;11.88;;;4.75;;
76953;SDS011;65893;51.698;-0.292;2023-11-22T12:16:15;14.48;;;5.15;;
76953;SDS011;65893;51.698;-0.292;2023-11-22T12:18:47;16.10;;;4.13;;
76953;SDS011;65893;51.698;-0.292;2023-11-22T12:21:14;10.45;;;3.80;;
76953;SDS011;65893;51.698;-0.292;2023-11-22T12:23:41;9.43;;;3.05;;
76953;SDS011;65893;51.698;-0.292;2023-11-22T12:26:16;10.88;;;3.45;;
76953;SDS011;65893;51.698;-0.292;2023-11-22T12:28:46;10.02;;;3.90;;
76953;SDS011;65893;51.698;-0.292;2023-11-22T12:31:14;17.50;;;3.38;;
76953;SDS011;65893;51.698;-0.292;2023-11-22T12:33:41;8.73;;;3.70;;
76953;SDS011;65893;51.698;-0.292;2023-11-22T12:36:09;12.73;;;3.38;;
76953;SDS011;65893;51.698;-0.292;2023-11-22T12:38:36;9.70;;;2.83;;
76953;SDS011;65893;51.698;-0.292;2023-11-22T12:41:02;10.27;;;3.75;;
76953;SDS011;65893;51.698;-0.292;2023-11-22T12:43:30;6.07;;;2.55;;
76953;SDS011;65893;51.698;-0.292;2023-11-22T12:46:03;9.30;;;3.47;;
76953;SDS011;65893;51.698;-0.292;2023-11-22T12:48:29;7.18;;;3.25;;
76953;SDS011;65893;51.698;-0.292;2023-11-22T12:50:56;10.38;;;3.00;;
76953;SDS011;65893;51.698;-0.292;2023-11-22T12:53:22;10.57;;;3.42;;
76953;SDS011;65893;51.698;-0.292;2023-11-22T12:55:52;9.98;;;3.42;;
76953;SDS011;65893;51.698;-0.292;2023-11-22T12:58:19;9.50;;;3.13;;
76953;SDS011;65893;51.698;-0.292;2023-11-22T13:00:46;11.15;;;3.53;;
76953;SDS011;65893;51.698;-0.292;2023-11-22T13:03:12;12.27;;;3.85;;
76953;SDS011;65893;51.698;-0.292;2023-11-22T13:05:39;10.90;;;3.15;;
76953;SDS011;65893;51.698;-0.292;2023-11-22T13:08:07;9.98;;;3.95;;
76953;SDS011;65893;51.698;-0.292;2023-11-22T13:10:36;9.75;;;3.90;;
76953;SDS011;65893;51.698;-0.292;2023-11-22T13:13:02;9.57;;;3.58;;
76953;SDS011;65893;51.698;-0.292;2023-11-22T13:15:28;15.23;;;3.15;;
76953;SDS011;65893;51.698;-0.292;2023-11-22T13:17:55;8.30;;;3.03;;
76953;SDS011;65893;51.698;-0.292;2023-11-22T13:20:22;13.13;;;2.92;;
76953;SDS011;65893;51.698;-0.292;2023-11-22T13:22:48;10.43;;;3.05;;
76953;SDS011;65893;51.698;-0.292;2023-11-22T13:25:15;9.38;;;2.75;;
76953;SDS011;65893;51.698;-0.292;2023-11-22T13:27:51;6.00;;;2.65;;
76953;SDS011;65893;51.698;-0.292;2023-11-22T13:30:18;7.88;;;2.65;;
76953;SDS011;65893;51.698;-0.292;2023-11-22T13:35:17;11.20;;;2.97;;
76953;SDS011;65893;51.698;-0.292;2023-11-22T13:37:46;7.22;;;2.65;;
76953;SDS011;65893;51.698;-0.292;2023-11-22T13:40:21;7.00;;;3.08;;
76953;SDS011;65893;51.698;-0.292;2023-11-22T13:42:50;9.68;;;2.45;;
76953;SDS011;65893;51.698;-0.292;2023-11-22T13:45:21;10.68;;;3.65;;
76953;SDS011;65893;51.698;-0.292;2023-11-22T13:50:18;10.10;;;2.90;;
76953;SDS011;65893;51.698;-0.292;2023-11-22T13:52:49;13.10;;;2.55;;
76953;SDS011;65893;51.698;-0.292;2023-11-22T13:55:16;7.80;;;2.72;;
76953;SDS011;65893;51.698;-0.292;2023-11-22T13:57:49;8.93;;;2.58;;
76953;SDS011;65893;51.698;-0.292;2023-11-22T14:03:01;12.38;;;3.15;;
76953;SDS011;65893;51.698;-0.292;2023-11-22T14:05:42;9.52;;;2.78;;
76953;SDS011;65893;51.698;-0.292;2023-11-22T14:08:18;7.63;;;2.40;;
76953;SDS011;65893;51.698;-0.292;2023-11-22T14:10:47;6.88;;;2.42;;
76953;SDS011;65893;51.698;-0.292;2023-11-22T14:13:20;8.50;;;2.67;;
76953;SDS011;65893;51.698;-0.292;2023-11-22T14:15:47;10.25;;;2.75;;
76953;SDS011;65893;51.698;-0.292;2023-11-22T14:18:13;10.30;;;2.30;;
76953;SDS011;65893;51.698;-0.292;2023-11-22T14:20:40;7.07;;;2.35;;
76953;SDS011;65893;51.698;-0.292;2023-11-22T14:23:08;7.25;;;2.25;;
76953;SDS011;65893;51.698;-0.292;2023-11-22T14:25:39;7.88;;;2.83;;
76953;SDS011;65893;51.698;-0.292;2023-11-22T14:28:07;11.75;;;2.80;;
76953;SDS011;65893;51.698;-0.292;2023-11-22T14:30:35;7.35;;;2.83;;
76953;SDS011;65893;51.698;-0.292;2023-11-22T14:33:04;7.82;;;2.60;;
76953;SDS011;65893;51.698;-0.292;2023-11-22T14:35:33;6.57;;;2.38;;
76953;SDS011;65893;51.698;-0.292;2023-11-22T14:38:01;11.65;;;2.30;;
76953;SDS011;65893;51.698;-0.292;2023-11-22T14:40:31;5.97;;;2.28;;
76953;SDS011;65893;51.698;-0.292;2023-11-22T14:43:00;7.97;;;2.72;;
76953;SDS011;65893;51.698;-0.292;2023-11-22T14:45:27;7.63;;;2.10;;
76953;SDS011;65893;51.698;-0.292;2023-11-22T14:48:01;8.55;;;2.08;;
76953;SDS011;65893;51.698;-0.292;2023-11-22T14:50:28;6.80;;;2.33;;
76953;SDS011;65893;51.698;-0.292;2023-11-22T14:52:57;8.60;;;1.88;;
76953;SDS011;65893;51.698;-0.292;2023-11-22T14:57:53;8.20;;;2.30;;
76953;SDS011;65893;51.698;-0.292;2023-11-22T15:00:31;6.10;;;2.03;;